sensor_id;sensor_type;location;lat;lon;timestamp;pressure;altitude;pressure_sealevel;temperature;humidity
56944;BME280;42848;42.524;12.052;2023-10-13T00:01:01;97263.06;;;18.54;100.00
56944;BME280;42848;42.524;12.052;2023-10-13T00:03:30;97260.13;;;18.78;99.64
56944;BME280;42848;42.524;12.052;2023-10-13T00:05:58;97261.88;;;18.86;98.34
56944;BME280;42848;42.524;12.052;2023-10-13T00:08:29;97266.94;;;18.84;98.27
56944;BME280;42848;42.524;12.052;2023-10-13T00:10:56;97277.97;;;18.53;100.00
56944;BME280;42848;42.524;12.052;2023-10-13T00:13:29;97269.84;;;18.56;100.00
56944;BME280;42848;42.524;12.052;2023-10-13T00:16:00;97271.50;;;18.61;99.34
56944;BME280;42848;42.524;12.052;2023-10-13T00:18:32;97269.84;;;18.40;100.00
56944;BME280;42848;42.524;12.052;2023-10-13T00:21:08;97271.75;;;18.56;99.92
56944;BME280;42848;42.524;12.052;2023-10-13T00:24:00;97274.91;;;18.38;100.00
56944;BME280;42848;42.524;12.052;2023-10-13T00:26:37;97278.78;;;18.53;99.66
56944;BME280;42848;42.524;12.052;2023-10-13T00:29:03;97280.56;;;18.45;100.00
56944;BME280;42848;42.524;12.052;2023-10-13T00:31:29;97278.78;;;18.69;99.53
56944;BME280;42848;42.524;12.052;2023-10-13T00:34:04;97267.59;;;18.62;100.00
56944;BME280;42848;42.524;12.052;2023-10-13T00:36:48;97256.41;;;18.70;100.00
56944;BME280;42848;42.524;12.052;2023-10-13T00:39:20;97258.22;;;18.82;99.42
56944;BME280;42848;42.524;12.052;2023-10-13T00:41:47;97258.53;;;18.77;99.89
56944;BME280;42848;42.524;12.052;2023-10-13T00:44:23;97273.06;;;18.78;99.77
56944;BME280;42848;42.524;12.052;2023-10-13T00:47:04;97263.25;;;18.61;100.00
56944;BME280;42848;42.524;12.052;2023-10-13T00:49:34;97265.47;;;18.71;100.00
56944;BME280;42848;42.524;12.052;2023-10-13T00:52:09;97254.81;;;18.54;100.00
56944;BME280;42848;42.524;12.052;2023-10-13T00:54:37;97257.03;;;18.64;100.00
56944;BME280;42848;42.524;12.052;2023-10-13T00:57:03;97259.75;;;18.64;100.00
56944;BME280;42848;42.524;12.052;2023-10-13T00:59:32;97263.00;;;18.66;100.00
56944;BME280;42848;42.524;12.052;2023-10-13T01:02:02;97254.28;;;18.64;100.00
56944;BME280;42848;42.524;12.052;2023-10-13T01:04:48;97252.13;;;18.73;100.00
56944;BME280;42848;42.524;12.052;2023-10-13T01:07:13;97259.16;;;18.55;100.00
56944;BME280;42848;42.524;12.052;2023-10-13T01:09:42;97260.06;;;18.59;100.00
56944;BME280;42848;42.524;12.052;2023-10-13T01:12:08;97253.66;;;18.55;100.00
56944;BME280;42848;42.524;12.052;2023-10-13T01:14:34;97254.66;;;18.46;100.00
56944;BME280;42848;42.524;12.052;2023-10-13T01:17:02;97245.03;;;18.37;100.00
56944;BME280;42848;42.524;12.052;2023-10-13T01:19:29;97251.38;;;18.06;100.00
56944;BME280;42848;42.524;12.052;2023-10-13T01:21:55;97250.28;;;18.26;100.00
56944;BME280;42848;42.524;12.052;2023-10-13T01:24:28;97242.75;;;18.07;100.00
56944;BME280;42848;42.524;12.052;2023-10-13T01:26:57;97254.78;;;18.18;100.00
56944;BME280;42848;42.524;12.052;2023-10-13T01:29:25;97246.72;;;18.26;100.00
56944;BME280;42848;42.524;12.052;2023-10-13T01:31:54;97249.03;;;18.24;100.00
56944;BME280;42848;42.524;12.052;2023-10-13T01:34:21;97249.41;;;18.22;100.00
56944;BME280;42848;42.524;12.052;2023-10-13T01:36:50;97253.50;;;17.97;100.00
56944;BME280;42848;42.524;12.052;2023-10-13T01:39:17;97245.16;;;18.09;100.00
56944;BME280;42848;42.524;12.052;2023-10-13T01:41:44;97248.22;;;18.39;100.00
56944;BME280;42848;42.524;12.052;2023-10-13T01:44:10;97248.59;;;18.22;100.00
56944;BME280;42848;42.524;12.052;2023-10-13T01:46:40;97253.56;;;18.32;100.00
56944;BME280;42848;42.524;12.052;2023-10-13T01:49:08;97245.91;;;18.41;100.00
56944;BME280;42848;42.524;12.052;2023-10-13T01:51:34;97249.41;;;18.22;100.00
56944;BME280;42848;42.524;12.052;2023-10-13T01:53:59;97247.25;;;18.47;100.00
56944;BME280;42848;42.524;12.052;2023-10-13T01:56:28;97243.47;;;18.20;100.00
56944;BME280;42848;42.524;12.052;2023-10-13T01:58:55;97236.72;;;18.68;100.00
56944;BME280;42848;42.524;12.052;2023-10-13T02:01:20;97239.28;;;18.61;100.00
56944;BME280;42848;42.524;12.052;2023-10-13T02:03:56;97238.81;;;18.40;100.00
56944;BME280;42848;42.524;12.052;2023-10-13T02:06:33;97247.84;;;18.56;100.00
56944;BME280;42848;42.524;12.052;2023-10-13T02:09:01;97231.88;;;18.46;100.00
56944;BME280;42848;42.524;12.052;2023-10-13T02:11:43;97244.56;;;18.51;100.00
56944;BME280;42848;42.524;12.052;2023-10-13T02:14:13;97239.78;;;18.47;100.00
56944;BME280;42848;42.524;12.052;2023-10-13T02:16:43;97242.25;;;18.53;100.00
56944;BME280;42848;42.524;12.052;2023-10-13T02:19:12;97254.81;;;18.54;100.00
56944;BME280;42848;42.524;12.052;2023-10-13T02:21:41;97245.06;;;18.05;100.00
56944;BME280;42848;42.524;12.052;2023-10-13T02:24:09;97253.94;;;18.14;100.00
56944;BME280;42848;42.524;12.052;2023-10-13T02:26:40;97257.09;;;18.32;100.00
56944;BME280;42848;42.524;12.052;2023-10-13T02:29:07;97254.78;;;18.34;100.00
56944;BME280;42848;42.524;12.052;2023-10-13T02:31:40;97255.53;;;18.15;100.00
56944;BME280;42848;42.524;12.052;2023-10-13T02:34:06;97254.00;;;18.18;100.00
56944;BME280;42848;42.524;12.052;2023-10-13T02:36:38;97251.97;;;18.15;100.00
56944;BME280;42848;42.524;12.052;2023-10-13T02:39:18;97248.69;;;18.25;100.00
56944;BME280;42848;42.524;12.052;2023-10-13T02:41:51;97247.63;;;18.14;100.00
56944;BME280;42848;42.524;12.052;2023-10-13T02:44:18;97249.16;;;18.11;100.00
56944;BME280;42848;42.524;12.052;2023-10-13T02:46:56;97246.22;;;18.20;100.00
56944;BME280;42848;42.524;12.052;2023-10-13T02:49:26;97249.94;;;18.12;100.00
56944;BME280;42848;42.524;12.052;2023-10-13T02:51:53;97249.78;;;18.05;100.00
56944;BME280;42848;42.524;12.052;2023-10-13T02:54:21;97245.88;;;18.06;100.00
56944;BME280;42848;42.524;12.052;2023-10-13T02:56:47;97237.09;;;18.00;100.00
56944;BME280;42848;42.524;12.052;2023-10-13T02:59:23;97234.00;;;18.02;100.00
56944;BME280;42848;42.524;12.052;2023-10-13T03:02:05;97233.03;;;17.94;100.00
56944;BME280;42848;42.524;12.052;2023-10-13T03:04:46;97240.69;;;17.57;100.00
56944;BME280;42848;42.524;12.052;2023-10-13T03:07:11;97229.84;;;17.76;100.00
56944;BME280;42848;42.524;12.052;2023-10-13T03:09:44;97236.38;;;17.72;100.00
56944;BME280;42848;42.524;12.052;2023-10-13T03:12:17;97240.97;;;17.68;100.00
56944;BME280;42848;42.524;12.052;2023-10-13T03:14:43;97237.63;;;17.90;100.00
56944;BME280;42848;42.524;12.052;2023-10-13T03:17:15;97236.81;;;17.58;100.00
56944;BME280;42848;42.524;12.052;2023-10-13T03:19:44;97239.25;;;17.75;100.00
56944;BME280;42848;42.524;12.052;2023-10-13T03:22:17;97238.09;;;17.32;100.00
56944;BME280;42848;42.524;12.052;2023-10-13T03:24:44;97238.63;;;17.38;100.00
56944;BME280;42848;42.524;12.052;2023-10-13T03:27:16;97234.31;;;17.53;100.00
56944;BME280;42848;42.524;12.052;2023-10-13T03:29:44;97236.69;;;17.54;100.00
56944;BME280;42848;42.524;12.052;2023-10-13T03:32:13;97230.66;;;17.64;100.00
56944;BME280;42848;42.524;12.052;2023-10-13T03:34:44;97240.38;;;17.74;100.00
56944;BME280;42848;42.524;12.052;2023-10-13T03:37:22;97243.03;;;17.71;100.00
56944;BME280;42848;42.524;12.052;2023-10-13T03:42:52;97236.09;;;17.61;100.00
56944;BME280;42848;42.524;12.052;2023-10-13T03:45:38;97234.22;;;17.49;100.00
56944;BME280;42848;42.524;12.052;2023-10-13T03:48:15;97241.75;;;17.68;100.00
56944;BME280;42848;42.524;12.052;2023-10-13T03:50:51;97237.66;;;17.74;100.00
56944;BME280;42848;42.524;12.052;2023-10-13T03:53:35;97235.69;;;17.90;100.00
56944;BME280;42848;42.524;12.052;2023-10-13T03:56:06;97235.84;;;17.66;100.00
56944;BME280;42848;42.524;12.052;2023-10-13T03:58:41;97236.75;;;17.70;100.00
56944;BME280;42848;42.524;12.052;2023-10-13T04:01:14;97235.22;;;17.57;100.00
56944;BME280;42848;42.524;12.052;2023-10-13T04:03:41;97232.09;;;17.58;100.00
56944;BME280;42848;42.524;12.052;2023-10-13T04:06:26;97238.09;;;17.76;100.00
56944;BME280;42848;42.524;12.052;2023-10-13T04:09:16;97233.56;;;17.84;100.00
56944;BME280;42848;42.524;12.052;2023-10-13T04:12:02;97229.56;;;17.81;100.00
56944;BME280;42848;42.524;12.052;2023-10-13T04:14:36;97237.00;;;17.97;100.00
56944;BME280;42848;42.524;12.052;2023-10-13T04:17:11;97234.91;;;17.74;100.00
56944;BME280;42848;42.524;12.052;2023-10-13T04:19:43;97233.28;;;17.73;100.00
56944;BME280;42848;42.524;12.052;2023-10-13T04:22:27;97236.22;;;17.80;100.00
56944;BME280;42848;42.524;12.052;2023-10-13T04:25:22;97234.44;;;17.88;100.00
56944;BME280;42848;42.524;12.052;2023-10-13T04:27:54;97237.00;;;17.97;100.00
56944;BME280;42848;42.524;12.052;2023-10-13T04:30:44;97240.91;;;17.96;100.00
56944;BME280;42848;42.524;12.052;2023-10-13T04:33:31;97236.13;;;17.93;100.00
56944;BME280;42848;42.524;12.052;2023-10-13T04:36:07;97235.25;;;18.04;100.00
56944;BME280;42848;42.524;12.052;2023-10-13T04:38:43;97236.84;;;17.89;100.00
56944;BME280;42848;42.524;12.052;2023-10-13T04:41:33;97235.25;;;17.88;100.00
56944;BME280;42848;42.524;12.052;2023-10-13T04:44:22;97231.91;;;17.51;100.00
56944;BME280;42848;42.524;12.052;2023-10-13T04:47:05;97233.03;;;17.78;100.00
56944;BME280;42848;42.524;12.052;2023-10-13T04:49:39;97229.38;;;18.06;100.00
56944;BME280;42848;42.524;12.052;2023-10-13T04:52:11;97241.34;;;17.98;100.00
56944;BME280;42848;42.524;12.052;2023-10-13T04:54:45;97241.09;;;18.03;100.00
56944;BME280;42848;42.524;12.052;2023-10-13T04:57:19;97246.22;;;17.88;100.00
56944;BME280;42848;42.524;12.052;2023-10-13T04:59:49;97246.47;;;18.15;100.00
56944;BME280;42848;42.524;12.052;2023-10-13T05:02:33;97249.50;;;17.78;100.00
56944;BME280;42848;42.524;12.052;2023-10-13T05:05:08;97247.06;;;17.61;100.00
56944;BME280;42848;42.524;12.052;2023-10-13T05:07:46;97249.69;;;17.70;100.00
56944;BME280;42848;42.524;12.052;2023-10-13T05:10:31;97252.44;;;17.85;100.00
56944;BME280;42848;42.524;12.052;2023-10-13T05:13:15;97260.03;;;18.08;100.00
56944;BME280;42848;42.524;12.052;2023-10-13T05:16:00;97254.38;;;17.85;100.00
56944;BME280;42848;42.524;12.052;2023-10-13T05:18:44;97246.41;;;17.96;100.00
56944;BME280;42848;42.524;12.052;2023-10-13T05:21:29;97263.00;;;17.83;100.00
56944;BME280;42848;42.524;12.052;2023-10-13T05:24:13;97262.72;;;17.88;100.00
56944;BME280;42848;42.524;12.052;2023-10-13T05:26:57;97265.88;;;17.90;100.00
56944;BME280;42848;42.524;12.052;2023-10-13T05:29:43;97264.09;;;17.82;100.00
56944;BME280;42848;42.524;12.052;2023-10-13T05:32:27;97260.66;;;18.01;100.00
56944;BME280;42848;42.524;12.052;2023-10-13T05:35:12;97266.16;;;18.01;100.00
56944;BME280;42848;42.524;12.052;2023-10-13T05:37:57;97275.91;;;17.99;100.00
56944;BME280;42848;42.524;12.052;2023-10-13T05:40:58;97280.25;;;18.00;100.00
56944;BME280;42848;42.524;12.052;2023-10-13T05:43:43;97287.69;;;17.99;100.00
56944;BME280;42848;42.524;12.052;2023-10-13T05:46:27;97292.56;;;18.06;100.00
56944;BME280;42848;42.524;12.052;2023-10-13T05:48:53;97298.06;;;18.06;100.00
56944;BME280;42848;42.524;12.052;2023-10-13T05:51:26;97292.81;;;18.01;100.00
56944;BME280;42848;42.524;12.052;2023-10-13T05:54:07;97299.31;;;17.93;100.00
56944;BME280;42848;42.524;12.052;2023-10-13T05:59:23;97306.03;;;17.95;100.00
56944;BME280;42848;42.524;12.052;2023-10-13T06:02:07;97306.03;;;18.27;99.57
56944;BME280;42848;42.524;12.052;2023-10-13T06:04:51;97316.66;;;18.28;100.00
56944;BME280;42848;42.524;12.052;2023-10-13T06:07:36;97314.47;;;18.18;100.00
56944;BME280;42848;42.524;12.052;2023-10-13T06:10:19;97315.72;;;18.05;100.00
56944;BME280;42848;42.524;12.052;2023-10-13T06:13:03;97320.28;;;18.01;100.00
56944;BME280;42848;42.524;12.052;2023-10-13T06:15:47;97329.63;;;18.12;100.00
56944;BME280;42848;42.524;12.052;2023-10-13T06:18:31;97331.47;;;18.08;100.00
56944;BME280;42848;42.524;12.052;2023-10-13T06:21:15;97333.06;;;18.09;100.00
56944;BME280;42848;42.524;12.052;2023-10-13T06:23:59;97330.41;;;18.28;100.00
56944;BME280;42848;42.524;12.052;2023-10-13T06:26:43;97336.38;;;18.30;100.00
56944;BME280;42848;42.524;12.052;2023-10-13T06:29:27;97330.41;;;18.44;100.00
56944;BME280;42848;42.524;12.052;2023-10-13T06:31:52;97346.41;;;18.38;100.00
56944;BME280;42848;42.524;12.052;2023-10-13T06:34:18;97342.31;;;18.32;100.00
56944;BME280;42848;42.524;12.052;2023-10-13T06:36:46;97334.75;;;18.45;100.00
56944;BME280;42848;42.524;12.052;2023-10-13T06:39:13;97347.69;;;18.60;100.00
56944;BME280;42848;42.524;12.052;2023-10-13T06:41:56;97349.03;;;18.19;100.00
56944;BME280;42848;42.524;12.052;2023-10-13T06:44:22;97350.28;;;18.37;100.00
56944;BME280;42848;42.524;12.052;2023-10-13T06:46:48;97348.41;;;18.41;100.00
56944;BME280;42848;42.524;12.052;2023-10-13T06:49:15;97351.06;;;18.54;100.00
56944;BME280;42848;42.524;12.052;2023-10-13T06:51:43;97352.41;;;18.60;100.00
56944;BME280;42848;42.524;12.052;2023-10-13T06:54:12;97357.63;;;18.65;100.00
56944;BME280;42848;42.524;12.052;2023-10-13T06:56:46;97359.97;;;18.47;100.00
56944;BME280;42848;42.524;12.052;2023-10-13T06:59:12;97367.84;;;18.48;100.00
56944;BME280;42848;42.524;12.052;2023-10-13T07:01:40;97362.50;;;18.56;100.00
56944;BME280;42848;42.524;12.052;2023-10-13T07:04:07;97366.59;;;18.46;100.00
56944;BME280;42848;42.524;12.052;2023-10-13T07:06:43;97361.81;;;18.59;100.00
56944;BME280;42848;42.524;12.052;2023-10-13T07:09:18;97367.66;;;18.57;100.00
56944;BME280;42848;42.524;12.052;2023-10-13T07:12:06;97372.69;;;18.55;100.00
56944;BME280;42848;42.524;12.052;2023-10-13T07:14:34;97371.31;;;18.77;100.00
56944;BME280;42848;42.524;12.052;2023-10-13T07:17:05;97376.84;;;18.96;100.00
56944;BME280;42848;42.524;12.052;2023-10-13T07:19:33;97378.03;;;18.80;100.00
56944;BME280;42848;42.524;12.052;2023-10-13T07:22:01;97380.59;;;18.88;100.00
56944;BME280;42848;42.524;12.052;2023-10-13T07:24:46;97383.09;;;18.93;100.00
56944;BME280;42848;42.524;12.052;2023-10-13T07:27:22;97388.28;;;18.98;100.00
56944;BME280;42848;42.524;12.052;2023-10-13T07:29:55;97388.41;;;19.02;100.00
56944;BME280;42848;42.524;12.052;2023-10-13T07:32:43;97395.03;;;19.01;100.00
56944;BME280;42848;42.524;12.052;2023-10-13T07:35:16;97394.63;;;19.18;100.00
56944;BME280;42848;42.524;12.052;2023-10-13T07:37:48;97398.47;;;19.14;100.00
56944;BME280;42848;42.524;12.052;2023-10-13T07:40:18;97393.66;;;19.11;100.00
56944;BME280;42848;42.524;12.052;2023-10-13T07:42:55;97392.06;;;19.10;100.00
56944;BME280;42848;42.524;12.052;2023-10-13T07:45:38;97390.81;;;19.23;100.00
56944;BME280;42848;42.524;12.052;2023-10-13T07:48:07;97393.19;;;19.24;100.00
56944;BME280;42848;42.524;12.052;2023-10-13T07:51:00;97392.03;;;19.25;100.00
56944;BME280;42848;42.524;12.052;2023-10-13T07:53:29;97391.91;;;19.38;100.00
56944;BME280;42848;42.524;12.052;2023-10-13T07:56:00;97399.66;;;19.32;100.00
56944;BME280;42848;42.524;12.052;2023-10-13T07:58:31;97401.53;;;19.28;100.00
56944;BME280;42848;42.524;12.052;2023-10-13T08:00:57;97397.50;;;19.41;100.00
56944;BME280;42848;42.524;12.052;2023-10-13T08:03:36;97397.34;;;19.34;100.00
56944;BME280;42848;42.524;12.052;2023-10-13T08:06:15;97401.47;;;19.44;100.00
56944;BME280;42848;42.524;12.052;2023-10-13T08:08:42;97403.72;;;19.38;100.00
56944;BME280;42848;42.524;12.052;2023-10-13T08:11:16;97399.53;;;19.44;100.00
56944;BME280;42848;42.524;12.052;2023-10-13T08:13:55;97396.88;;;19.48;100.00
56944;BME280;42848;42.524;12.052;2023-10-13T08:16:37;97399.09;;;19.42;100.00
56944;BME280;42848;42.524;12.052;2023-10-13T08:19:21;97411.00;;;19.66;100.00
56944;BME280;42848;42.524;12.052;2023-10-13T08:21:58;97409.00;;;19.63;100.00
56944;BME280;42848;42.524;12.052;2023-10-13T08:24:47;97416.03;;;19.44;100.00
56944;BME280;42848;42.524;12.052;2023-10-13T08:27:14;97411.25;;;19.57;100.00
56944;BME280;42848;42.524;12.052;2023-10-13T08:30:01;97414.50;;;19.63;100.00
56944;BME280;42848;42.524;12.052;2023-10-13T08:32:29;97410.44;;;19.76;100.00
56944;BME280;42848;42.524;12.052;2023-10-13T08:34:56;97416.31;;;19.74;100.00
56944;BME280;42848;42.524;12.052;2023-10-13T08:37:22;97416.81;;;19.80;100.00
56944;BME280;42848;42.524;12.052;2023-10-13T08:39:48;97416.03;;;19.79;100.00
56944;BME280;42848;42.524;12.052;2023-10-13T08:42:44;97414.13;;;19.83;100.00
56944;BME280;42848;42.524;12.052;2023-10-13T08:45:12;97410.56;;;19.83;100.00
56944;BME280;42848;42.524;12.052;2023-10-13T08:47:59;97412.03;;;19.96;100.00
56944;BME280;42848;42.524;12.052;2023-10-13T08:50:52;97424.50;;;19.90;100.00
56944;BME280;42848;42.524;12.052;2023-10-13T08:58:27;97416.81;;;19.99;100.00
56944;BME280;42848;42.524;12.052;2023-10-13T09:01:12;97414.78;;;19.96;100.00
56944;BME280;42848;42.524;12.052;2023-10-13T09:03:41;97411.88;;;19.89;100.00
56944;BME280;42848;42.524;12.052;2023-10-13T09:06:14;97422.16;;;19.92;100.00
56944;BME280;42848;42.524;12.052;2023-10-13T09:08:45;97416.59;;;19.88;100.00
56944;BME280;42848;42.524;12.052;2023-10-13T09:11:32;97419.56;;;19.99;100.00
56944;BME280;42848;42.524;12.052;2023-10-13T09:14:14;97420.78;;;20.21;100.00
56944;BME280;42848;42.524;12.052;2023-10-13T09:17:05;97421.34;;;20.11;100.00
56944;BME280;42848;42.524;12.052;2023-10-13T09:22:23;97427.09;;;20.22;100.00
56944;BME280;42848;42.524;12.052;2023-10-13T09:24:59;97414.53;;;20.24;100.00
56944;BME280;42848;42.524;12.052;2023-10-13T09:27:31;97412.56;;;20.25;100.00
56944;BME280;42848;42.524;12.052;2023-10-13T09:29:58;97425.03;;;20.18;100.00
56944;BME280;42848;42.524;12.052;2023-10-13T09:32:43;97418.72;;;20.18;100.00
56944;BME280;42848;42.524;12.052;2023-10-13T09:37:43;97418.72;;;20.18;100.00
56944;BME280;42848;42.524;12.052;2023-10-13T09:40:15;97423.66;;;20.28;100.00
56944;BME280;42848;42.524;12.052;2023-10-13T09:42:53;97419.81;;;20.33;100.00
56944;BME280;42848;42.524;12.052;2023-10-13T09:45:28;97420.66;;;20.37;100.00
56944;BME280;42848;42.524;12.052;2023-10-13T09:47:55;97419.22;;;20.43;100.00
56944;BME280;42848;42.524;12.052;2023-10-13T09:50:28;97425.28;;;20.52;100.00
56944;BME280;42848;42.524;12.052;2023-10-13T09:53:00;97424.00;;;20.46;100.00
56944;BME280;42848;42.524;12.052;2023-10-13T09:55:33;97425.84;;;20.61;100.00
56944;BME280;42848;42.524;12.052;2023-10-13T09:58:04;97428.28;;;20.66;98.44
56944;BME280;42848;42.524;12.052;2023-10-13T10:00:56;97420.44;;;20.68;98.75
56944;BME280;42848;42.524;12.052;2023-10-13T10:03:24;97416.03;;;20.87;98.60
56944;BME280;42848;42.524;12.052;2023-10-13T10:06:05;97412.59;;;20.70;98.40
56944;BME280;42848;42.524;12.052;2023-10-13T10:08:41;97412.09;;;20.88;97.72
56944;BME280;42848;42.524;12.052;2023-10-13T10:16:47;97412.84;;;21.38;96.12
56944;BME280;42848;42.524;12.052;2023-10-13T10:19:14;97405.03;;;21.17;92.70
56944;BME280;42848;42.524;12.052;2023-10-13T10:21:40;97408.97;;;21.16;92.85
56944;BME280;42848;42.524;12.052;2023-10-13T10:24:22;97415.81;;;21.25;92.68
56944;BME280;42848;42.524;12.052;2023-10-13T10:26:58;97409.66;;;21.36;92.34
56944;BME280;42848;42.524;12.052;2023-10-13T10:29:24;97410.66;;;21.24;90.93
56944;BME280;42848;42.524;12.052;2023-10-13T10:31:50;97411.34;;;21.17;89.37
56944;BME280;42848;42.524;12.052;2023-10-13T10:34:17;97398.97;;;21.08;92.27
56944;BME280;42848;42.524;12.052;2023-10-13T10:36:54;97395.47;;;21.37;86.76
56944;BME280;42848;42.524;12.052;2023-10-13T10:39:20;97401.19;;;21.51;85.40
56944;BME280;42848;42.524;12.052;2023-10-13T10:41:46;97393.28;;;21.50;84.53
56944;BME280;42848;42.524;12.052;2023-10-13T10:44:18;97399.13;;;21.45;87.57
56944;BME280;42848;42.524;12.052;2023-10-13T10:46:51;97396.75;;;21.43;86.32
56944;BME280;42848;42.524;12.052;2023-10-13T10:49:22;97386.19;;;21.49;87.97
56944;BME280;42848;42.524;12.052;2023-10-13T10:51:58;97394.22;;;21.61;85.91
56944;BME280;42848;42.524;12.052;2023-10-13T10:54:27;97385.34;;;21.48;84.05
56944;BME280;42848;42.524;12.052;2023-10-13T10:56:58;97384.00;;;21.65;83.10
56944;BME280;42848;42.524;12.052;2023-10-13T10:59:38;97387.09;;;21.60;82.00
56944;BME280;42848;42.524;12.052;2023-10-13T11:02:04;97387.84;;;21.91;82.05
56944;BME280;42848;42.524;12.052;2023-10-13T11:04:32;97377.19;;;21.93;80.67
56944;BME280;42848;42.524;12.052;2023-10-13T11:07:06;97379.84;;;21.82;79.71
56944;BME280;42848;42.524;12.052;2023-10-13T11:09:33;97381.22;;;21.65;80.51
56944;BME280;42848;42.524;12.052;2023-10-13T11:12:15;97376.09;;;22.01;79.70
56944;BME280;42848;42.524;12.052;2023-10-13T11:14:45;97376.56;;;22.06;76.97
56944;BME280;42848;42.524;12.052;2023-10-13T11:17:22;97371.75;;;22.00;77.67
56944;BME280;42848;42.524;12.052;2023-10-13T11:20:13;97372.53;;;21.97;77.04
56944;BME280;42848;42.524;12.052;2023-10-13T11:22:46;97365.31;;;21.89;76.95
56944;BME280;42848;42.524;12.052;2023-10-13T11:25:24;97359.88;;;21.96;76.59
56944;BME280;42848;42.524;12.052;2023-10-13T11:27:58;97358.53;;;22.16;75.52
56944;BME280;42848;42.524;12.052;2023-10-13T11:30:32;97342.50;;;22.32;73.53
56944;BME280;42848;42.524;12.052;2023-10-13T11:33:05;97349.31;;;22.46;74.27
56944;BME280;42848;42.524;12.052;2023-10-13T11:35:40;97352.59;;;22.62;70.88
56944;BME280;42848;42.524;12.052;2023-10-13T11:38:19;97346.09;;;22.40;71.68
56944;BME280;42848;42.524;12.052;2023-10-13T11:40:55;97344.50;;;22.39;70.64
56944;BME280;42848;42.524;12.052;2023-10-13T11:43:48;97336.34;;;22.57;69.54
56944;BME280;42848;42.524;12.052;2023-10-13T11:49:13;97333.56;;;22.53;67.94
56944;BME280;42848;42.524;12.052;2023-10-13T11:51:41;97337.56;;;22.59;67.40
56944;BME280;42848;42.524;12.052;2023-10-13T11:54:14;97334.41;;;22.61;63.90
56944;BME280;42848;42.524;12.052;2023-10-13T11:56:41;97340.50;;;22.81;61.34
56944;BME280;42848;42.524;12.052;2023-10-13T11:59:07;97336.66;;;22.48;62.54
56944;BME280;42848;42.524;12.052;2023-10-13T12:01:42;97326.00;;;22.98;68.34
56944;BME280;42848;42.524;12.052;2023-10-13T12:04:26;97318.94;;;23.11;68.93
56944;BME280;42848;42.524;12.052;2023-10-13T12:07:10;97314.28;;;23.26;69.13
56944;BME280;42848;42.524;12.052;2023-10-13T12:09:44;97321.00;;;23.25;67.23
56944;BME280;42848;42.524;12.052;2023-10-13T12:12:25;97316.56;;;23.10;66.30
56944;BME280;42848;42.524;12.052;2023-10-13T12:14:51;97310.19;;;23.02;65.70
56944;BME280;42848;42.524;12.052;2023-10-13T12:17:24;97306.63;;;23.02;66.75
56944;BME280;42848;42.524;12.052;2023-10-13T12:22:30;97303.91;;;23.12;64.66
56944;BME280;42848;42.524;12.052;2023-10-13T12:25:07;97304.75;;;23.20;63.86
56944;BME280;42848;42.524;12.052;2023-10-13T12:28:09;97302.34;;;23.15;64.27
56944;BME280;42848;42.524;12.052;2023-10-13T12:30:44;97297.63;;;23.19;62.88
56944;BME280;42848;42.524;12.052;2023-10-13T12:33:18;97291.41;;;23.43;63.54
56944;BME280;42848;42.524;12.052;2023-10-13T12:35:50;97292.97;;;23.48;63.39
56944;BME280;42848;42.524;12.052;2023-10-13T12:38:35;97289.41;;;23.47;62.96
56944;BME280;42848;42.524;12.052;2023-10-13T12:41:16;97291.41;;;23.43;63.74
56944;BME280;42848;42.524;12.052;2023-10-13T12:44:00;97271.28;;;23.61;62.18
56944;BME280;42848;42.524;12.052;2023-10-13T12:46:43;97281.53;;;23.53;62.54
56944;BME280;42848;42.524;12.052;2023-10-13T12:49:27;97281.13;;;23.58;63.22
56944;BME280;42848;42.524;12.052;2023-10-13T12:52:11;97277.56;;;23.58;61.43
56944;BME280;42848;42.524;12.052;2023-10-13T12:54:57;97273.97;;;23.46;62.06
56944;BME280;42848;42.524;12.052;2023-10-13T12:57:26;97276.09;;;23.78;60.80
56944;BME280;42848;42.524;12.052;2023-10-13T12:59:52;97273.69;;;23.69;60.47
56944;BME280;42848;42.524;12.052;2023-10-13T13:02:23;97278.03;;;23.67;60.88
56944;BME280;42848;42.524;12.052;2023-10-13T13:04:52;97270.84;;;23.59;61.40
56944;BME280;42848;42.524;12.052;2023-10-13T13:07:25;97274.84;;;23.65;60.60
56944;BME280;42848;42.524;12.052;2023-10-13T13:09:55;97268.50;;;23.68;62.71
56944;BME280;42848;42.524;12.052;2023-10-13T13:12:24;97263.41;;;23.84;62.33
56944;BME280;42848;42.524;12.052;2023-10-13T13:14:50;97270.16;;;24.11;63.83
56944;BME280;42848;42.524;12.052;2023-10-13T13:17:23;97259.88;;;24.12;65.47
56944;BME280;42848;42.524;12.052;2023-10-13T13:19:48;97259.88;;;24.19;63.96
56944;BME280;42848;42.524;12.052;2023-10-13T13:22:14;97262.25;;;24.28;62.79
56944;BME280;42848;42.524;12.052;2023-10-13T13:24:43;97259.84;;;24.23;63.52
56944;BME280;42848;42.524;12.052;2023-10-13T13:27:12;97255.13;;;24.05;62.67
56944;BME280;42848;42.524;12.052;2023-10-13T13:29:42;97257.47;;;24.03;63.05
56944;BME280;42848;42.524;12.052;2023-10-13T13:32:07;97254.31;;;24.08;65.81
56944;BME280;42848;42.524;12.052;2023-10-13T13:34:43;97260.28;;;24.46;69.03
56944;BME280;42848;42.524;12.052;2023-10-13T13:37:08;97255.13;;;24.41;68.34
56944;BME280;42848;42.524;12.052;2023-10-13T13:39:38;97254.34;;;24.55;66.43
56944;BME280;42848;42.524;12.052;2023-10-13T13:42:08;97254.34;;;24.37;64.67
56944;BME280;42848;42.524;12.052;2023-10-13T13:44:35;97256.72;;;24.46;63.75
56944;BME280;42848;42.524;12.052;2023-10-13T13:47:03;97255.50;;;24.57;63.62